createdAt,value
2022-10-14T00:02:35.623Z,67.99
2022-10-14T00:05:41.607Z,68.01
2022-10-14T00:08:46.570Z,68.06
2022-10-14T00:11:55.020Z,68.13
2022-10-14T00:15:01.307Z,68.09
2022-10-14T00:18:08.054Z,68.14
2022-10-14T00:21:14.939Z,68.13
2022-10-14T00:24:24.920Z,68.10
2022-10-14T00:27:31.683Z,68.13
2022-10-14T00:30:39.954Z,68.15
2022-10-14T00:33:47.311Z,68.14
2022-10-14T00:36:55.728Z,68.16
2022-10-14T00:40:01.588Z,68.24
2022-10-14T00:43:07.877Z,68.26
2022-10-14T00:46:13.168Z,68.30
2022-10-14T00:49:48.262Z,68.34
2022-10-14T00:52:53.980Z,68.38
2022-10-14T00:55:58.650Z,68.29
2022-10-14T00:59:04.796Z,68.30
2022-10-14T01:02:10.721Z,68.33
2022-10-14T01:05:17.373Z,68.31
2022-10-14T01:08:33.664Z,68.22
2022-10-14T01:12:04.204Z,68.20
2022-10-14T01:15:15.334Z,68.36
2022-10-14T01:18:33.309Z,68.40
2022-10-14T01:22:09.367Z,68.41
2022-10-14T01:25:34.227Z,68.46
2022-10-14T01:28:52.005Z,68.41
2022-10-14T01:32:01.855Z,68.36
2022-10-14T01:35:11.966Z,68.36
2022-10-14T01:38:37.003Z,68.42
2022-10-14T01:41:48.576Z,68.42
2022-10-14T01:44:57.003Z,68.54
2022-10-14T01:48:05.648Z,68.60
2022-10-14T01:51:16.013Z,68.60
2022-10-14T01:54:29.360Z,68.58
2022-10-14T01:57:40.536Z,68.57
2022-10-14T02:00:45.972Z,68.51
2022-10-14T02:03:56.651Z,68.51
2022-10-14T02:07:13.859Z,68.61
2022-10-14T02:10:40.853Z,68.77
2022-10-14T02:14:14.958Z,68.86
2022-10-14T02:17:26.085Z,68.93
2022-10-14T02:20:51.449Z,69.00
2022-10-14T02:24:10.665Z,69.01
2022-10-14T02:27:19.562Z,68.95
2022-10-14T02:30:25.486Z,68.85
2022-10-14T02:33:32.614Z,68.78
2022-10-14T02:36:34.649Z,68.87
2022-10-14T02:39:31.729Z,68.98
2022-10-14T02:42:36.869Z,68.98
2022-10-14T02:45:43.183Z,69.01
2022-10-14T02:48:50.821Z,69.03
2022-10-14T02:51:56.896Z,69.08
2022-10-14T02:55:02.789Z,69.13
2022-10-14T02:58:08.920Z,69.07
2022-10-14T03:01:15.195Z,68.97
2022-10-14T03:04:21.439Z,68.99
2022-10-14T03:07:27.427Z,69.01
2022-10-14T03:10:35.697Z,69.11
2022-10-14T03:13:40.895Z,69.05
2022-10-14T03:16:47.146Z,69.22
2022-10-14T03:19:56.008Z,69.27
2022-10-14T03:23:01.750Z,69.34
2022-10-14T03:26:13.696Z,69.29
2022-10-14T03:29:21.471Z,69.34
2022-10-14T03:32:32.168Z,69.34
2022-10-14T03:35:39.729Z,69.38
2022-10-14T03:38:49.242Z,69.47
2022-10-14T03:41:53.692Z,69.39
2022-10-14T03:44:49.596Z,69.40
2022-10-14T03:47:57.935Z,69.42
2022-10-14T03:51:04.494Z,69.52
2022-10-14T03:54:11.651Z,69.55
2022-10-14T03:57:16.962Z,69.55
2022-10-14T04:00:25.609Z,69.54
2022-10-14T04:03:36.180Z,69.52
2022-10-14T04:06:43.944Z,69.55
2022-10-14T04:09:51.398Z,69.48
2022-10-14T04:12:57.757Z,69.46
2022-10-14T04:16:07.094Z,69.52
2022-10-14T04:19:15.446Z,69.54
2022-10-14T04:22:22.299Z,69.53
2022-10-14T04:25:28.962Z,69.53
2022-10-14T04:28:35.413Z,69.66
2022-10-14T04:31:44.077Z,69.69
2022-10-14T04:34:50.528Z,69.77
2022-10-14T04:37:57.728Z,69.87
2022-10-14T04:41:04.898Z,69.94
2022-10-14T04:44:11.946Z,69.93
2022-10-14T04:47:21.907Z,69.86
2022-10-14T04:50:29.724Z,69.84
2022-10-14T04:53:45.230Z,69.92
2022-10-14T04:56:58.132Z,70.06
2022-10-14T05:00:05.726Z,70.16
2022-10-14T05:03:17.850Z,70.19
2022-10-14T05:06:24.238Z,70.16
2022-10-14T05:09:31.258Z,70.15
2022-10-14T05:12:38.420Z,70.20
2022-10-14T05:15:45.072Z,70.32
2022-10-14T05:18:54.583Z,70.29
2022-10-14T05:22:00.337Z,70.29
2022-10-14T05:25:07.214Z,70.33
2022-10-14T05:28:13.072Z,70.38
2022-10-14T05:31:22.467Z,70.36
2022-10-14T05:34:32.886Z,70.38
2022-10-14T05:37:41.574Z,70.41
2022-10-14T05:40:49.151Z,70.45
2022-10-14T05:43:55.000Z,70.43
2022-10-14T05:47:03.227Z,70.45
2022-10-14T05:50:10.496Z,70.48
2022-10-14T05:53:21.726Z,70.52
2022-10-14T05:56:29.351Z,70.54
2022-10-14T05:59:38.479Z,70.58
2022-10-14T06:02:47.183Z,70.62
2022-10-14T06:05:52.136Z,70.68
2022-10-14T06:08:59.437Z,70.73
2022-10-14T06:12:07.497Z,70.79
2022-10-14T06:15:17.416Z,70.87
2022-10-14T06:18:23.073Z,70.93
2022-10-14T06:21:29.182Z,70.99
2022-10-14T06:24:37.189Z,71.00
2022-10-14T06:27:43.112Z,71.04
2022-10-14T06:30:49.353Z,71.07
2022-10-14T06:33:55.904Z,71.05
2022-10-14T06:37:03.122Z,71.11
2022-10-14T06:40:10.938Z,71.16
2022-10-14T06:43:17.159Z,71.22
2022-10-14T06:46:26.871Z,71.29
2022-10-14T06:49:33.004Z,71.31
2022-10-14T06:52:40.347Z,71.34
2022-10-14T06:55:47.413Z,71.34
2022-10-14T06:58:53.586Z,71.36
2022-10-14T07:02:00.089Z,71.36
2022-10-14T07:05:07.806Z,71.37
2022-10-14T07:08:16.337Z,71.36
2022-10-14T07:11:23.070Z,71.36
2022-10-14T07:18:50.576Z,71.36
2022-10-14T07:22:00.395Z,71.36
2022-10-14T07:25:05.086Z,71.33
2022-10-14T07:28:12.234Z,71.31
2022-10-14T07:31:23.099Z,71.29
2022-10-14T07:34:30.358Z,71.29
2022-10-14T07:37:36.040Z,71.31
2022-10-14T07:40:42.764Z,71.32
2022-10-14T07:43:49.768Z,71.25
2022-10-14T07:46:56.659Z,71.23
2022-10-14T07:50:05.659Z,71.17
2022-10-14T07:53:10.598Z,71.12
2022-10-14T07:56:17.930Z,71.08
2022-10-14T07:59:24.662Z,71.12
2022-10-14T08:02:31.996Z,71.05
2022-10-14T08:05:38.611Z,71.02
2022-10-14T08:08:45.667Z,70.97
2022-10-14T08:11:53.973Z,70.95
2022-10-14T08:15:00.458Z,70.90
2022-10-14T08:18:08.126Z,70.85
2022-10-14T08:21:14.479Z,70.77
2022-10-14T08:24:20.658Z,70.66
2022-10-14T08:27:26.885Z,70.59
2022-10-14T08:30:32.777Z,70.54
2022-10-14T08:33:39.093Z,70.50
2022-10-14T08:36:45.651Z,70.40
2022-10-14T08:39:50.063Z,70.30
2022-10-14T08:43:31.106Z,70.17
2022-10-14T08:46:49.380Z,70.06
2022-10-14T08:50:26.338Z,69.95
2022-10-14T08:53:38.503Z,69.90
2022-10-14T08:56:46.650Z,69.78
2022-10-14T08:59:55.781Z,69.67
2022-10-14T09:03:05.353Z,69.57
2022-10-14T09:06:18.674Z,69.26
2022-10-14T09:09:28.589Z,69.03
2022-10-14T09:12:42.749Z,68.96
2022-10-14T09:15:54.328Z,68.75
2022-10-14T09:19:13.047Z,68.55
2022-10-14T09:22:27.084Z,68.42
2022-10-14T09:25:36.082Z,68.33
2022-10-14T09:28:53.531Z,68.08
2022-10-14T09:32:00.347Z,67.87
2022-10-14T09:35:06.949Z,67.87
2022-10-14T09:38:13.386Z,67.77
2022-10-14T09:41:22.462Z,67.43
2022-10-14T09:44:39.206Z,67.22
2022-10-14T09:47:45.379Z,67.16
2022-10-14T09:50:58.935Z,67.20
2022-10-14T09:54:13.203Z,67.22
2022-10-14T09:57:23.379Z,67.09
2022-10-14T10:00:41.564Z,66.86
2022-10-14T10:03:48.492Z,66.58
2022-10-14T10:06:59.961Z,66.20
2022-10-14T10:10:14.480Z,65.99
2022-10-14T10:13:39.466Z,65.89
2022-10-14T10:16:45.889Z,65.86
2022-10-14T10:19:58.233Z,65.68
2022-10-14T10:23:07.538Z,65.22
2022-10-14T10:26:33.206Z,65.13
2022-10-14T10:29:42.541Z,65.10
2022-10-14T10:33:01.412Z,64.99
2022-10-14T10:36:23.149Z,64.91
2022-10-14T10:40:06.506Z,64.63
2022-10-14T10:43:35.021Z,64.50
2022-10-14T10:46:52.083Z,64.38
2022-10-14T10:50:15.617Z,64.45
2022-10-14T10:53:56.574Z,63.85
2022-10-14T10:57:30.086Z,63.63
2022-10-14T11:00:37.882Z,63.81
2022-10-14T11:03:51.346Z,63.82
2022-10-14T11:07:58.376Z,63.86
2022-10-14T11:11:46.060Z,63.88
2022-10-14T11:15:29.679Z,63.99
2022-10-14T11:19:03.417Z,63.98
2022-10-14T11:22:35.207Z,63.97
2022-10-14T11:25:56.646Z,64.11
2022-10-14T11:29:17.881Z,64.22
2022-10-14T11:32:34.964Z,64.15
2022-10-14T11:36:18.789Z,63.88
2022-10-14T11:39:50.802Z,63.83
2022-10-14T11:43:21.865Z,63.66
2022-10-14T11:46:30.396Z,63.63
2022-10-14T11:49:46.596Z,63.41
2022-10-14T11:53:01.241Z,63.25
2022-10-14T11:56:35.845Z,62.96
2022-10-14T12:00:35.044Z,62.65
2022-10-14T12:04:06.253Z,62.39
2022-10-14T12:07:33.387Z,62.21
2022-10-14T12:10:50.465Z,61.91
2022-10-14T12:14:02.692Z,61.57
2022-10-14T12:17:09.992Z,61.60
2022-10-14T12:20:33.092Z,61.55
2022-10-14T12:23:53.604Z,61.50
2022-10-14T12:27:11.896Z,61.25
2022-10-14T12:30:21.204Z,61.05
2022-10-14T12:33:27.790Z,61.04
2022-10-14T12:36:49.615Z,60.87
2022-10-14T12:39:59.148Z,60.54
2022-10-14T12:43:21.706Z,59.96
2022-10-14T12:46:29.004Z,59.65
2022-10-14T12:49:46.404Z,59.20
2022-10-14T12:52:54.420Z,59.32
2022-10-14T12:56:11.963Z,59.37
2022-10-14T12:59:21.651Z,59.15
2022-10-14T13:02:44.308Z,58.79
2022-10-14T13:05:57.175Z,58.39
2022-10-14T13:09:30.113Z,58.14
2022-10-14T13:12:42.405Z,57.93
2022-10-14T13:16:06.318Z,57.57
2022-10-14T13:19:18.809Z,57.71
2022-10-14T13:22:46.875Z,57.96
2022-10-14T13:25:54.668Z,57.53
2022-10-14T13:29:17.593Z,57.20
2022-10-14T13:32:42.337Z,56.97
2022-10-14T13:36:13.507Z,56.60
2022-10-14T13:39:19.354Z,56.64
2022-10-14T13:42:29.451Z,56.52
2022-10-14T13:45:41.146Z,56.56
2022-10-14T13:48:57.064Z,56.29
2022-10-14T13:52:08.750Z,56.24
2022-10-14T13:55:30.713Z,56.22
2022-10-14T13:58:39.511Z,56.10
2022-10-14T14:01:48.620Z,55.87
2022-10-14T14:04:54.855Z,55.77
2022-10-14T14:11:17.651Z,55.44
2022-10-14T14:14:28.723Z,55.47
2022-10-14T14:17:39.670Z,55.35
2022-10-14T14:20:45.662Z,55.17
2022-10-14T14:23:52.202Z,54.95
2022-10-14T14:26:58.470Z,54.95
2022-10-14T14:30:05.375Z,54.93
2022-10-14T14:33:13.449Z,54.87
2022-10-14T14:36:33.457Z,54.82
2022-10-14T14:39:43.294Z,54.84
2022-10-14T14:42:52.881Z,54.82
2022-10-14T14:45:58.698Z,54.79
2022-10-14T14:49:09.982Z,54.81
2022-10-14T14:52:15.731Z,54.85
2022-10-14T14:55:23.612Z,54.88
2022-10-14T14:58:39.998Z,54.95
2022-10-14T15:01:47.749Z,54.99
2022-10-14T15:04:55.335Z,54.96
2022-10-14T15:08:03.442Z,55.03
2022-10-14T15:11:10.563Z,55.12
2022-10-14T15:14:22.003Z,55.18
2022-10-14T15:17:47.269Z,55.21
2022-10-14T15:20:57.027Z,55.19
2022-10-14T15:24:11.711Z,55.30
2022-10-14T15:27:48.719Z,55.40
2022-10-14T15:31:04.630Z,55.51
2022-10-14T15:34:06.780Z,55.57
2022-10-14T15:37:13.016Z,55.67
2022-10-14T15:40:21.308Z,55.76
2022-10-14T15:43:31.170Z,55.78
2022-10-14T15:46:54.503Z,55.81
2022-10-14T15:50:00.727Z,55.84
2022-10-14T15:53:07.852Z,55.86
2022-10-14T15:56:13.268Z,55.91
2022-10-14T15:59:22.607Z,56.08
2022-10-14T16:02:40.488Z,56.11
2022-10-14T16:05:48.074Z,56.09
2022-10-14T16:08:53.751Z,56.14
2022-10-14T16:12:07.225Z,56.28
2022-10-14T16:15:14.161Z,56.37
2022-10-14T16:18:15.050Z,56.38
2022-10-14T16:21:32.036Z,56.45
2022-10-14T16:24:40.280Z,56.64
2022-10-14T16:27:46.040Z,56.87
2022-10-14T16:30:59.465Z,57.17
2022-10-14T16:34:06.100Z,57.24
2022-10-14T16:37:11.788Z,57.29
2022-10-14T16:40:17.446Z,57.37
2022-10-14T16:43:25.377Z,57.42
2022-10-14T16:46:33.965Z,57.43
2022-10-14T16:49:40.651Z,57.48
2022-10-14T16:53:05.992Z,57.54
2022-10-14T16:56:15.564Z,57.57
2022-10-14T16:59:21.471Z,57.63
2022-10-14T17:02:33.386Z,57.68
2022-10-14T17:05:32.809Z,57.75
2022-10-14T17:08:38.408Z,57.78
2022-10-14T17:11:44.951Z,57.80
2022-10-14T17:14:49.602Z,57.86
2022-10-14T17:17:55.550Z,57.93
2022-10-14T17:21:01.864Z,57.97
2022-10-14T17:24:09.123Z,58.11
2022-10-14T17:27:15.451Z,58.31
2022-10-14T17:30:23.403Z,58.45
2022-10-14T17:33:32.358Z,58.50
2022-10-14T17:36:41.106Z,58.62
2022-10-14T17:39:47.362Z,58.83
2022-10-14T17:42:54.171Z,58.98
2022-10-14T17:46:03.133Z,59.13
2022-10-14T17:49:13.072Z,59.30
2022-10-14T17:52:18.116Z,59.40
2022-10-14T17:55:26.759Z,59.41
2022-10-14T17:58:32.562Z,59.34
2022-10-14T18:04:48.257Z,59.28
2022-10-14T18:07:56.341Z,59.22
2022-10-14T18:11:04.216Z,59.19
2022-10-14T18:14:13.786Z,59.34
2022-10-14T18:17:21.356Z,59.48
2022-10-14T18:20:29.050Z,59.58
2022-10-14T18:23:34.013Z,59.63
2022-10-14T18:26:42.148Z,59.74
2022-10-14T18:29:49.669Z,59.75
2022-10-14T18:32:55.582Z,59.71
2022-10-14T18:36:05.329Z,59.75
2022-10-14T18:39:15.612Z,59.90
2022-10-14T18:42:21.906Z,60.09
2022-10-14T18:45:28.482Z,60.22
2022-10-14T18:48:36.292Z,60.33
2022-10-14T18:51:48.121Z,60.35
2022-10-14T18:54:54.918Z,60.35
2022-10-14T18:58:01.109Z,60.51
2022-10-14T19:01:06.313Z,60.55
2022-10-14T19:04:13.273Z,60.53
2022-10-14T19:07:19.744Z,60.50
2022-10-14T19:10:26.509Z,60.55
2022-10-14T19:13:32.230Z,60.65
2022-10-14T19:16:43.981Z,60.77
2022-10-14T19:19:49.709Z,60.82
2022-10-14T19:22:56.811Z,60.81
2022-10-14T19:26:02.490Z,60.83
2022-10-14T19:29:10.635Z,60.87
2022-10-14T19:32:17.121Z,60.85
2022-10-14T19:35:24.188Z,60.78
2022-10-14T19:38:31.001Z,60.76
2022-10-14T19:41:38.105Z,60.87
2022-10-14T19:44:45.641Z,61.05
2022-10-14T19:47:54.595Z,61.19
2022-10-14T19:51:06.223Z,61.22
2022-10-14T19:54:10.890Z,61.16
2022-10-14T19:57:17.390Z,61.22
2022-10-14T20:00:25.336Z,61.34
2022-10-14T20:03:32.161Z,61.41
2022-10-14T20:06:38.334Z,61.52
2022-10-14T20:09:44.749Z,61.62
2022-10-14T20:12:52.755Z,61.53
2022-10-14T20:15:58.973Z,61.44
2022-10-14T20:19:05.677Z,61.50
2022-10-14T20:22:13.284Z,61.60
2022-10-14T20:25:19.728Z,61.74
2022-10-14T20:28:26.211Z,61.84
2022-10-14T20:31:36.636Z,61.80
2022-10-14T20:34:43.553Z,61.62
2022-10-14T20:37:50.912Z,61.60
2022-10-14T20:40:58.126Z,61.71
2022-10-14T20:44:04.593Z,61.69
2022-10-14T20:47:05.541Z,61.82
2022-10-14T20:50:12.575Z,61.95
2022-10-14T20:53:19.986Z,61.93
2022-10-14T20:56:27.368Z,61.91
2022-10-14T20:59:32.181Z,62.00
2022-10-14T21:02:38.496Z,61.95
2022-10-14T21:05:45.470Z,62.08
2022-10-14T21:08:54.280Z,61.99
2022-10-14T21:12:00.394Z,62.09
2022-10-14T21:15:06.535Z,62.10
2022-10-14T21:18:15.333Z,62.15
2022-10-14T21:21:21.583Z,62.26
2022-10-14T21:24:29.976Z,62.33
2022-10-14T21:27:35.985Z,62.33
2022-10-14T21:30:42.251Z,62.31
2022-10-14T21:33:48.016Z,62.35
2022-10-14T21:36:53.993Z,62.34
2022-10-14T21:40:01.795Z,62.18
2022-10-14T21:43:09.343Z,62.07
2022-10-14T21:46:23.995Z,62.12
2022-10-14T21:49:31.146Z,62.32
2022-10-14T21:52:38.234Z,62.39
2022-10-14T21:55:43.955Z,62.50
2022-10-14T21:58:49.451Z,62.63
2022-10-14T22:01:56.026Z,62.60
2022-10-14T22:05:04.100Z,62.70
2022-10-14T22:08:12.784Z,62.97
2022-10-14T22:11:21.371Z,63.13
2022-10-14T22:14:30.545Z,63.04
2022-10-14T22:17:37.653Z,63.01
2022-10-14T22:20:44.963Z,63.03
2022-10-14T22:23:52.126Z,63.09
2022-10-14T22:26:59.294Z,63.26
2022-10-14T22:30:05.837Z,63.23
2022-10-14T22:33:11.976Z,63.24
2022-10-14T22:36:30.777Z,63.39
2022-10-14T22:39:35.613Z,63.50
2022-10-14T22:42:42.398Z,63.44
2022-10-14T22:45:48.072Z,63.42
2022-10-14T22:48:54.313Z,63.36
2022-10-14T22:52:00.681Z,63.40
2022-10-14T22:55:08.382Z,63.47
2022-10-14T22:58:16.260Z,63.41
2022-10-14T23:01:28.574Z,63.53
2022-10-14T23:04:29.002Z,63.72
2022-10-14T23:07:15.399Z,63.70
2022-10-14T23:10:07.482Z,63.55
2022-10-14T23:13:14.680Z,63.46
2022-10-14T23:16:22.337Z,63.39
2022-10-14T23:19:29.144Z,63.33
2022-10-14T23:22:36.493Z,63.26
2022-10-14T23:25:42.727Z,63.28
2022-10-14T23:28:49.128Z,63.36
2022-10-14T23:31:55.478Z,63.37
2022-10-14T23:35:03.046Z,63.45
2022-10-14T23:38:09.432Z,63.49
2022-10-14T23:41:16.956Z,63.43
2022-10-14T23:44:22.084Z,63.46
2022-10-14T23:47:27.967Z,63.57
2022-10-14T23:50:33.424Z,63.61
2022-10-14T23:53:39.434Z,63.63
2022-10-14T23:56:44.678Z,63.77
2022-10-14T23:59:51.452Z,63.94
